createdAt,value
2017-07-14T00:01:05.173Z,20.75
2017-07-14T00:03:20.868Z,20.55
2017-07-14T00:05:13.791Z,20.32
2017-07-14T00:07:37.841Z,20.27
2017-07-14T00:10:01.865Z,20.12
2017-07-14T00:12:25.827Z,20.33
2017-07-14T00:14:49.945Z,20.68
2017-07-14T00:17:14.023Z,21.05
2017-07-14T00:19:29.708Z,21.03
2017-07-14T00:21:53.790Z,21.22
2017-07-14T00:24:10.503Z,21.15
2017-07-14T00:26:35.604Z,20.9
2017-07-14T00:28:59.684Z,20.67
2017-07-14T00:31:23.777Z,20.88
2017-07-14T00:33:39.477Z,21.01
2017-07-14T00:36:03.539Z,21.14
2017-07-14T00:38:27.623Z,21.1
2017-07-14T00:40:51.702Z,21.26
2017-07-14T00:42:58.886Z,21.41
2017-07-14T00:45:14.471Z,21.3
2017-07-14T00:47:30.050Z,21.23
2017-07-14T00:49:54.131Z,21.5
2017-07-14T00:52:10.744Z,21.38
2017-07-14T00:54:34.820Z,21.5
2017-07-14T00:56:58.906Z,21.47
2017-07-14T00:59:24.018Z,21.4
2017-07-14T01:01:48.091Z,21.56
2017-07-14T01:04:12.175Z,21.62
2017-07-14T01:06:36.252Z,21.72
2017-07-14T01:09:00.338Z,21.54
2017-07-14T01:11:01.819Z,21.32
2017-07-14T01:13:25.882Z,21.19
2017-07-14T01:15:27.728Z,21.26
2017-07-14T01:17:51.823Z,20.98
2017-07-14T01:20:07.435Z,21.1
2017-07-14T01:22:31.492Z,21.17
2017-07-14T01:24:55.538Z,21.26
2017-07-14T01:27:19.569Z,20.95
2017-07-14T01:29:43.590Z,20.88
2017-07-14T01:31:50.726Z,20.9
2017-07-14T01:34:14.755Z,20.88
2017-07-14T01:36:38.869Z,20.53
2017-07-14T01:39:02.949Z,20.68
2017-07-14T01:41:26.927Z,20.73
2017-07-14T01:43:52.958Z,20.55
2017-07-14T01:46:17.038Z,20.42
2017-07-14T01:48:42.144Z,20.49
2017-07-14T01:51:06.096Z,20.36
2017-07-14T01:53:21.716Z,20.22
2017-07-14T01:55:45.691Z,20.11
2017-07-14T01:58:09.771Z,19.71
2017-07-14T02:00:35.795Z,19.94
2017-07-14T02:02:52.400Z,20.19
2017-07-14T02:05:08.084Z,20.32
2017-07-14T02:07:24.693Z,20.49
2017-07-14T02:09:26.042Z,20.64
2017-07-14T02:11:50.023Z,20.67
2017-07-14T02:14:13.982Z,20.67
2017-07-14T02:16:29.481Z,20.6
2017-07-14T02:18:53.443Z,20.74
2017-07-14T02:21:09.044Z,20.75
2017-07-14T02:23:33.021Z,20.86
2017-07-14T02:25:58.027Z,20.92
2017-07-14T02:28:06.233Z,20.71
2017-07-14T02:30:07.588Z,20.89
2017-07-14T02:32:31.573Z,20.85
2017-07-14T02:34:55.555Z,20.66
2017-07-14T02:37:11.123Z,20.53
2017-07-14T02:39:35.205Z,20.7
2017-07-14T02:41:59.175Z,20.71
2017-07-14T02:43:52.585Z,20.85
2017-07-14T02:46:16.605Z,20.89
2017-07-14T02:48:32.158Z,20.67
2017-07-14T02:50:56.172Z,20.67
2017-07-14T02:53:21.195Z,20.93
2017-07-14T02:55:14.110Z,20.75
2017-07-14T02:57:29.681Z,20.9
2017-07-14T02:59:39.523Z,20.68
2017-07-14T03:02:03.522Z,20.74
2017-07-14T03:04:27.559Z,20.68
2017-07-14T03:06:37.404Z,20.67
2017-07-14T03:09:01.359Z,20.53
2017-07-14T03:11:25.356Z,20.53
2017-07-14T03:13:40.904Z,20.56
2017-07-14T03:16:05.006Z,20.66
2017-07-14T03:18:29.090Z,20.4
2017-07-14T03:20:53.171Z,20.4
2017-07-14T03:23:08.716Z,20.5
2017-07-14T03:25:32.730Z,20.52
2017-07-14T03:27:56.817Z,20.56
2017-07-14T03:30:20.900Z,20.66
2017-07-14T03:32:44.878Z,20.64
2017-07-14T03:35:00.460Z,20.52
2017-07-14T03:37:24.544Z,20.56
2017-07-14T03:39:49.649Z,20.74
2017-07-14T03:42:13.730Z,20.95
2017-07-14T03:44:29.312Z,20.86
2017-07-14T03:46:36.497Z,20.95
2017-07-14T03:49:00.579Z,20.95
2017-07-14T03:51:24.662Z,20.83
2017-07-14T03:53:40.248Z,20.75
2017-07-14T03:55:55.930Z,20.77
2017-07-14T03:58:20.933Z,20.78
2017-07-14T04:00:45.012Z,20.88
2017-07-14T04:03:00.556Z,20.92
2017-07-14T04:05:24.580Z,20.9
2017-07-14T04:07:49.577Z,21.1
2017-07-14T04:10:13.663Z,20.85
2017-07-14T04:12:37.742Z,20.93
2017-07-14T04:15:01.755Z,21.04
2017-07-14T04:17:25.803Z,21.03
2017-07-14T04:19:49.889Z,20.86
2017-07-14T04:22:13.863Z,20.96
2017-07-14T04:24:37.932Z,20.66
2017-07-14T04:27:03.053Z,21.03
2017-07-14T04:29:27.141Z,20.86
2017-07-14T04:31:51.148Z,20.78
2017-07-14T04:34:06.799Z,20.7
2017-07-14T04:36:30.885Z,20.75
2017-07-14T04:38:54.964Z,20.85
2017-07-14T04:41:18.961Z,20.92
2017-07-14T04:43:43.028Z,20.88
2017-07-14T04:46:07.099Z,20.71
2017-07-14T04:48:31.098Z,20.73
2017-07-14T04:50:56.196Z,20.49
2017-07-14T04:53:20.272Z,20.14
2017-07-14T04:55:44.355Z,20.04
2017-07-14T04:58:08.442Z,20.22
2017-07-14T05:00:32.519Z,19.99
2017-07-14T05:02:48.102Z,20.32
2017-07-14T05:04:55.190Z,20.67
2017-07-14T05:07:10.767Z,20.7
2017-07-14T05:09:34.753Z,20.93
2017-07-14T05:11:58.828Z,21.13
2017-07-14T05:14:15.434Z,21.25
2017-07-14T05:16:46.385Z,21.37
2017-07-14T05:19:10.464Z,21.69
2017-07-14T05:21:36.618Z,21.54
2017-07-14T05:24:01.702Z,22.03
2017-07-14T05:26:25.781Z,22.81
2017-07-14T05:28:49.967Z,23.47
2017-07-14T05:31:05.755Z,26.42
2017-07-14T05:33:30.040Z,26.37
2017-07-14T05:35:54.428Z,29.16
2017-07-14T05:38:18.851Z,29.53
2017-07-14T05:40:43.412Z,30.78
2017-07-14T05:43:08.106Z,32.48
2017-07-14T05:45:32.899Z,33.77
2017-07-14T05:47:57.911Z,37.18
2017-07-14T05:50:15.541Z,35.05
2017-07-14T05:52:40.750Z,33.39
2017-07-14T05:54:57.377Z,32.72
2017-07-14T05:57:22.539Z,38.54
2017-07-14T05:59:39.375Z,41.22
2017-07-14T06:02:04.895Z,40.54
2017-07-14T06:04:30.605Z,42.37
2017-07-14T06:06:32.892Z,44.48
2017-07-14T06:08:58.853Z,43.15
2017-07-14T06:11:24.934Z,41.6
2017-07-14T06:13:51.061Z,45.02
2017-07-14T06:16:33.165Z,45.08
2017-07-14T06:20:35.769Z,42.03
2017-07-14T06:23:01.943Z,38.17
2017-07-14T06:25:12.414Z,36.31
2017-07-14T06:27:38.239Z,34.46
2017-07-14T06:29:55.338Z,33.09
2017-07-14T06:32:20.801Z,32.27
2017-07-14T06:34:46.146Z,31.67
2017-07-14T06:37:11.363Z,29.61
2017-07-14T06:39:36.454Z,28.43
2017-07-14T06:42:01.439Z,26.98
2017-07-14T06:44:17.948Z,26.79
2017-07-14T06:46:36.399Z,26.81
2017-07-14T06:49:01.192Z,25.88
2017-07-14T06:51:17.395Z,25.61
2017-07-14T06:53:42.094Z,24.99
2017-07-14T06:56:06.683Z,24.75
2017-07-14T06:58:31.167Z,24.29
2017-07-14T07:00:57.720Z,24.01
2017-07-14T07:03:13.716Z,23.95
2017-07-14T07:05:29.700Z,23.64
2017-07-14T07:07:54.191Z,23.85
2017-07-14T07:10:19.606Z,24.06
2017-07-14T07:12:43.966Z,23.85
2017-07-14T07:15:08.385Z,23.79
2017-07-14T07:17:24.268Z,23.81
2017-07-14T07:19:48.692Z,23.64
2017-07-14T07:22:12.897Z,23.67
2017-07-14T07:24:37.156Z,23.39
2017-07-14T07:27:01.420Z,23.67
2017-07-14T07:29:17.305Z,23.91
2017-07-14T07:31:41.591Z,24
2017-07-14T07:34:05.875Z,23.95
2017-07-14T07:36:30.170Z,23.74
2017-07-14T07:38:54.457Z,23.77
2017-07-14T07:41:04.440Z,23.86
2017-07-14T07:43:28.745Z,24.18
2017-07-14T07:45:53.017Z,24.97
2017-07-14T07:48:17.302Z,25.01
2017-07-14T07:50:41.756Z,25.41
2017-07-14T07:53:06.144Z,25.19
2017-07-14T07:55:30.534Z,25.58
2017-07-14T07:57:54.926Z,25.96
2017-07-14T08:00:10.919Z,26.04
2017-07-14T08:02:35.427Z,25.88
2017-07-14T08:04:46.957Z,27.53
2017-07-14T08:07:11.481Z,28.5
2017-07-14T08:09:36.013Z,28.92
2017-07-14T08:12:00.661Z,28.16
2017-07-14T08:14:25.365Z,27.88
2017-07-14T08:16:50.022Z,27.75
2017-07-14T08:19:15.822Z,30.55
2017-07-14T08:21:47.356Z,32.49
2017-07-14T08:24:13.292Z,33.16
2017-07-14T08:26:15.352Z,31.7
2017-07-14T08:28:40.376Z,30.69
2017-07-14T08:31:05.387Z,30.02
2017-07-14T08:33:21.850Z,30.18
2017-07-14T08:35:46.838Z,30.81
2017-07-14T08:38:11.858Z,29.79
2017-07-14T08:40:36.862Z,29.83
2017-07-14T08:43:01.865Z,31.47
2017-07-14T08:45:26.869Z,34.13
2017-07-14T08:47:51.972Z,35.15
2017-07-14T08:50:08.617Z,34.4
2017-07-14T08:52:25.415Z,35.1
2017-07-14T08:54:36.203Z,36.33
2017-07-14T08:56:12.126Z,36.14
2017-07-14T08:58:37.559Z,35.47
2017-07-14T09:00:54.429Z,35.05
2017-07-14T09:03:19.790Z,35.47
2017-07-14T09:05:28.122Z,36.22
2017-07-14T09:07:53.552Z,35.76
2017-07-14T09:10:20.018Z,35.57
2017-07-14T09:12:45.531Z,33.65
2017-07-14T09:15:11.054Z,32.19
2017-07-14T09:17:36.469Z,31.93
2017-07-14T09:20:01.769Z,32.42
2017-07-14T09:22:27.007Z,31.2
2017-07-14T09:24:52.298Z,30.2
2017-07-14T09:27:09.187Z,30.02
2017-07-14T09:29:34.406Z,31.63
2017-07-14T09:31:51.088Z,32.72
2017-07-14T09:34:16.246Z,32.31
2017-07-14T09:36:41.411Z,32.17
2017-07-14T09:39:06.762Z,31.25
2017-07-14T09:41:32.909Z,33.05
2017-07-14T09:43:09.276Z,34.02
2017-07-14T09:45:34.452Z,34.18
2017-07-14T09:47:59.606Z,34.59
2017-07-14T09:50:24.838Z,35.9
2017-07-14T09:52:59.082Z,36.51
2017-07-14T09:55:24.507Z,35.3
2017-07-14T09:57:41.340Z,34.29
2017-07-14T10:00:06.659Z,36.05
2017-07-14T10:02:23.521Z,35.97
2017-07-14T10:04:48.946Z,33.04
2017-07-14T10:06:50.635Z,33.03
2017-07-14T10:09:15.967Z,33.97
2017-07-14T10:11:41.253Z,33.94
2017-07-14T10:13:49.553Z,33.22
2017-07-14T10:16:16.487Z,34.22
2017-07-14T10:18:41.794Z,32.85
2017-07-14T10:21:07.053Z,33.17
2017-07-14T10:23:23.811Z,32.19
2017-07-14T10:25:48.997Z,32.46
2017-07-14T10:28:05.732Z,31.55
2017-07-14T10:30:15.991Z,31.26
2017-07-14T10:32:41.203Z,32.07
2017-07-14T10:35:06.333Z,31.98
2017-07-14T10:37:31.471Z,32.22
2017-07-14T10:39:56.577Z,32.42
2017-07-14T10:42:21.672Z,31.64
2017-07-14T10:44:38.278Z,31.18
2017-07-14T10:47:03.439Z,31.41
2017-07-14T10:49:28.529Z,31.08
2017-07-14T10:51:53.627Z,31.36
2017-07-14T10:54:18.705Z,31.5
2017-07-14T10:57:00.862Z,30.38
2017-07-14T10:59:25.968Z,30.24
2017-07-14T11:01:50.970Z,30.01
2017-07-14T11:04:15.972Z,30.08
2017-07-14T11:06:43.027Z,29.71
2017-07-14T11:09:08.045Z,30.1
2017-07-14T11:11:24.533Z,31.32
2017-07-14T11:13:51.484Z,31.45
2017-07-14T11:16:18.537Z,31.95
2017-07-14T11:18:35.039Z,31.29
2017-07-14T11:21:00.025Z,30.55
2017-07-14T11:23:24.997Z,30.03
2017-07-14T11:25:49.972Z,30.43
2017-07-14T11:28:14.923Z,30.36
2017-07-14T11:30:31.369Z,29.96
2017-07-14T11:33:04.023Z,29.03
2017-07-14T11:35:28.953Z,28.18
2017-07-14T11:37:39.144Z,28.3
2017-07-14T11:40:04.033Z,28.6
2017-07-14T11:42:28.838Z,28.31
2017-07-14T11:44:53.652Z,28.2
2017-07-14T11:47:18.425Z,28.53
2017-07-14T11:49:43.155Z,29.03
2017-07-14T11:51:59.381Z,29.73
2017-07-14T11:54:01.030Z,29.83
2017-07-14T11:56:25.843Z,29.05
2017-07-14T11:58:50.575Z,29.16
2017-07-14T12:01:15.348Z,29.96
2017-07-14T12:03:40.136Z,29.84
2017-07-14T12:06:04.883Z,29.5
2017-07-14T12:08:29.657Z,28.86
2017-07-14T12:10:54.381Z,28.34
2017-07-14T12:13:19.132Z,27.41
2017-07-14T12:15:43.857Z,26.97
2017-07-14T12:18:09.541Z,27.07
2017-07-14T12:20:34.187Z,27.82
2017-07-14T12:22:58.773Z,28.23
2017-07-14T12:25:40.434Z,29.2
2017-07-14T12:28:05.153Z,29.77
2017-07-14T12:30:29.889Z,30.01
2017-07-14T12:34:32.826Z,29.1
2017-07-14T12:36:57.695Z,28.87
2017-07-14T12:39:22.414Z,28.68
2017-07-14T12:41:47.161Z,28.25
2017-07-14T12:44:12.654Z,28.19
2017-07-14T12:46:37.247Z,28.41
2017-07-14T12:49:01.834Z,28.71
2017-07-14T12:51:26.507Z,29.25
2017-07-14T12:53:51.128Z,29.64
2017-07-14T12:56:15.842Z,30.11
2017-07-14T13:00:16.208Z,29.79
2017-07-14T13:02:32.527Z,29.46
2017-07-14T13:04:57.299Z,28.82
2017-07-14T13:07:22.055Z,28.75
2017-07-14T13:09:46.861Z,29.21
2017-07-14T13:11:56.973Z,28.77
2017-07-14T13:14:21.820Z,28.82
2017-07-14T13:16:46.594Z,28.35
2017-07-14T13:19:11.352Z,28.2
2017-07-14T13:21:36.084Z,28.18
2017-07-14T13:24:00.873Z,28.33
2017-07-14T13:26:25.588Z,28.4
2017-07-14T13:28:50.264Z,28.56
2017-07-14T13:32:50.693Z,28.71
2017-07-14T13:35:00.785Z,28.55
2017-07-14T13:37:25.534Z,28.57
2017-07-14T13:39:50.226Z,28.41
2017-07-14T13:42:14.857Z,28.5
2017-07-14T13:44:39.510Z,28.28
2017-07-14T13:47:04.191Z,28.49
2017-07-14T13:49:37.663Z,29.16
2017-07-14T13:52:02.358Z,29.8
2017-07-14T13:54:27.053Z,30.23
2017-07-14T13:56:43.312Z,30.44
2017-07-14T13:59:08.031Z,30.61
2017-07-14T14:01:32.786Z,30.78
2017-07-14T14:03:57.518Z,30.55
2017-07-14T14:06:13.787Z,30.77
2017-07-14T14:08:38.609Z,30.26
2017-07-14T14:11:03.420Z,29.94
2017-07-14T14:13:28.277Z,29.73
2017-07-14T14:15:53.250Z,29.1
2017-07-14T14:18:18.048Z,29.22
2017-07-14T14:20:42.840Z,29.57
2017-07-14T14:23:07.617Z,30.29
2017-07-14T14:25:32.410Z,30.76
2017-07-14T14:27:57.201Z,30.43
2017-07-14T14:30:22.003Z,30.17
2017-07-14T14:32:46.823Z,30.43
2017-07-14T14:35:11.659Z,30.52
2017-07-14T14:37:13.238Z,30.24
2017-07-14T14:39:14.789Z,29.89
2017-07-14T14:41:39.669Z,29.98
2017-07-14T14:43:41.787Z,29.47
2017-07-14T14:46:07.465Z,29.64
2017-07-14T14:48:31.619Z,29.73
2017-07-14T14:50:56.437Z,29.94
2017-07-14T14:53:21.291Z,29.99
2017-07-14T14:55:46.078Z,29.87
2017-07-14T14:58:10.832Z,29.86
2017-07-14T15:00:35.649Z,29.16
2017-07-14T15:02:51.977Z,29.52
2017-07-14T15:05:16.765Z,29.67
2017-07-14T15:07:41.492Z,29.77
2017-07-14T15:09:51.634Z,30.02
2017-07-14T15:12:16.399Z,30.32
2017-07-14T15:14:41.224Z,30.71
2017-07-14T15:17:06.031Z,30.21
2017-07-14T15:19:30.894Z,30.13
2017-07-14T15:21:57.030Z,30.26
2017-07-14T15:24:30.007Z,29.76
2017-07-14T15:26:56.127Z,29.47
2017-07-14T15:29:32.855Z,29.2
2017-07-14T15:32:00.666Z,29.35
2017-07-14T15:35:52.788Z,29.1
2017-07-14T15:38:20.450Z,29.06
2017-07-14T15:40:46.827Z,28.92
2017-07-14T15:42:32.668Z,28.74
2017-07-14T15:45:54.823Z,28.96
2017-07-14T15:48:20.435Z,29.16
2017-07-14T15:50:45.220Z,29.13
2017-07-14T15:53:09.925Z,28.57
2017-07-14T15:55:20.063Z,28.75
2017-07-14T15:57:44.832Z,28.5
2017-07-14T16:00:09.566Z,28.53
2017-07-14T16:02:34.287Z,28.52
2017-07-14T16:04:59.034Z,28.31
2017-07-14T16:07:09.470Z,28.3
2017-07-14T16:09:34.082Z,28.23
2017-07-14T16:11:50.292Z,28.43
2017-07-14T16:14:06.503Z,28.35
2017-07-14T16:16:31.183Z,28.13
2017-07-14T16:18:55.946Z,28.2
2017-07-14T16:21:12.152Z,27.64
2017-07-14T16:23:36.800Z,27.88
2017-07-14T16:26:01.449Z,28.13
2017-07-14T16:28:17.591Z,28.28
2017-07-14T16:30:42.336Z,28.28
2017-07-14T16:32:58.532Z,28.13
2017-07-14T16:35:23.620Z,28.04
2017-07-14T16:37:48.340Z,27.94
2017-07-14T16:40:12.974Z,27.88
2017-07-14T16:42:37.718Z,27.95
2017-07-14T16:45:02.384Z,27.76
2017-07-14T16:47:27.032Z,28.06
2017-07-14T16:49:51.705Z,28.28
2017-07-14T16:52:16.356Z,28.49
2017-07-14T16:54:32.534Z,28.41
2017-07-14T16:56:57.173Z,28.55
2017-07-14T16:59:21.824Z,28.57
2017-07-14T17:01:46.482Z,28.31
2017-07-14T17:04:11.180Z,28.16
2017-07-14T17:06:35.875Z,28.23
2017-07-14T17:09:00.544Z,28.25
2017-07-14T17:11:25.217Z,28.52
2017-07-14T17:13:41.412Z,28.57
2017-07-14T17:16:06.161Z,28.41
2017-07-14T17:18:30.854Z,27.95
2017-07-14T17:20:55.471Z,27.67
2017-07-14T17:23:11.650Z,27.47
2017-07-14T17:25:36.235Z,27.58
2017-07-14T17:28:00.856Z,27.33
2017-07-14T17:30:25.447Z,27.28
2017-07-14T17:32:50.051Z,27.53
2017-07-14T17:35:06.183Z,27.23
2017-07-14T17:37:30.782Z,27.4
2017-07-14T17:39:55.382Z,27.2
2017-07-14T17:42:19.951Z,27.3
2017-07-14T17:44:44.472Z,27.07
2017-07-14T17:47:09.019Z,26.74
2017-07-14T17:49:33.580Z,26.55
2017-07-14T17:51:49.672Z,26.79
2017-07-14T17:54:14.202Z,26.76
2017-07-14T17:56:38.890Z,26.71
2017-07-14T17:59:03.414Z,26.68
2017-07-14T18:01:19.462Z,26.6
2017-07-14T18:03:44.014Z,26.3
2017-07-14T18:06:08.482Z,26.08
2017-07-14T18:08:33.029Z,26.07
2017-07-14T18:10:49.126Z,26.22
2017-07-14T18:13:13.718Z,26.22
2017-07-14T18:15:38.207Z,25.93
2017-07-14T18:17:39.691Z,25.76
2017-07-14T18:20:04.198Z,25.95
2017-07-14T18:22:28.658Z,25.86
2017-07-14T18:24:53.122Z,25.71
2017-07-14T18:27:17.576Z,25.76
2017-07-14T18:29:42.019Z,25.67
2017-07-14T18:32:06.611Z,25.58
2017-07-14T18:34:31.098Z,25.63
2017-07-14T18:36:47.074Z,25.26
2017-07-14T18:39:11.490Z,25.33
2017-07-14T18:41:35.890Z,25.19
2017-07-14T18:44:00.304Z,25.26
2017-07-14T18:46:33.331Z,25.56
2017-07-14T18:48:58.402Z,25.62
2017-07-14T18:51:23.891Z,25.59
2017-07-14T18:53:48.228Z,25.3
2017-07-14T18:56:04.464Z,25.21
2017-07-14T18:58:28.853Z,25.31
2017-07-14T19:00:53.325Z,25.21
2017-07-14T19:03:00.662Z,25.19
2017-07-14T19:05:16.591Z,25.26
2017-07-14T19:07:41.012Z,25.34
2017-07-14T19:09:51.052Z,25.21
2017-07-14T19:12:15.476Z,25.11
2017-07-14T19:14:39.853Z,24.94
2017-07-14T19:16:55.788Z,25.07
2017-07-14T19:18:57.220Z,25.11
2017-07-14T19:21:21.623Z,25.03
2017-07-14T19:23:31.620Z,24.99
2017-07-14T19:25:55.963Z,25.01
2017-07-14T19:28:20.306Z,24.74
2017-07-14T19:30:44.626Z,24.65
2017-07-14T19:33:08.957Z,24.63
2017-07-14T19:35:33.280Z,24.74
2017-07-14T19:37:49.173Z,24.75
2017-07-14T19:40:13.489Z,24.66
2017-07-14T19:42:37.795Z,24.74
2017-07-14T19:45:02.118Z,24.58
2017-07-14T19:47:17.996Z,24.56
2017-07-14T19:49:42.325Z,24.5
2017-07-14T19:51:58.197Z,24.46
2017-07-14T19:54:22.571Z,24.56
2017-07-14T19:56:46.915Z,24.66
2017-07-14T19:59:11.259Z,24.63
2017-07-14T20:01:35.553Z,24.81
2017-07-14T20:03:59.883Z,24.56
2017-07-14T20:06:01.350Z,24.48
2017-07-14T20:08:25.701Z,24.63
2017-07-14T20:10:41.570Z,24.61
2017-07-14T20:13:05.814Z,24.61
2017-07-14T20:15:30.113Z,24.46
2017-07-14T20:17:54.380Z,24.44
2017-07-14T20:20:18.678Z,24.31
2017-07-14T20:22:42.904Z,24.34
2017-07-14T20:25:07.200Z,24.28
2017-07-14T20:27:31.504Z,24.29
2017-07-14T20:29:55.847Z,24.47
2017-07-14T20:32:20.154Z,24.5
2017-07-14T20:34:44.457Z,24.28
2017-07-14T20:37:00.327Z,24.25
2017-07-14T20:39:24.638Z,24.13
2017-07-14T20:41:48.939Z,24.19
2017-07-14T20:44:13.250Z,24.29
2017-07-14T20:46:37.581Z,24.19
2017-07-14T20:49:01.897Z,24.01
2017-07-14T20:51:26.186Z,23.71
2017-07-14T20:53:41.977Z,23.56
2017-07-14T20:56:06.187Z,23.51
2017-07-14T20:58:30.474Z,23.33
2017-07-14T21:00:54.721Z,23.04
2017-07-14T21:03:19.072Z,23.08
2017-07-14T21:05:43.240Z,23.25
2017-07-14T21:08:07.473Z,22.92
2017-07-14T21:10:31.733Z,22.67
2017-07-14T21:12:55.916Z,22.73
2017-07-14T21:15:11.687Z,22.71
2017-07-14T21:17:35.878Z,22.52
2017-07-14T21:20:00.018Z,22.47
2017-07-14T21:21:58.858Z,22.03
2017-07-14T21:24:08.813Z,22.22
2017-07-14T21:26:32.995Z,22
2017-07-14T21:28:48.694Z,21.97
2017-07-14T21:31:12.888Z,21.97
2017-07-14T21:33:37.037Z,21.99
2017-07-14T21:36:01.177Z,22.12
2017-07-14T21:38:25.252Z,21.89
2017-07-14T21:40:40.934Z,21.92
2017-07-14T21:43:05.062Z,21.35
2017-07-14T21:45:29.166Z,21.69
2017-07-14T21:47:53.344Z,21.91
2017-07-14T21:50:00.570Z,21.92
2017-07-14T21:52:10.491Z,21.77
2017-07-14T21:54:34.605Z,21.72
2017-07-14T21:56:44.598Z,21.23
2017-07-14T21:59:08.717Z,21.26
2017-07-14T22:01:24.358Z,20.98
2017-07-14T22:03:48.390Z,20.86
2017-07-14T22:06:12.442Z,21.14
2017-07-14T22:08:22.367Z,21.26
2017-07-14T22:10:46.385Z,21.13
2017-07-14T22:13:10.456Z,21.44
2017-07-14T22:15:34.544Z,21.1
2017-07-14T22:17:58.618Z,20.95
2017-07-14T22:20:22.721Z,20.95
2017-07-14T22:22:39.047Z,20.93
2017-07-14T22:24:54.617Z,20.66
2017-07-14T22:27:18.768Z,20.68
2017-07-14T22:29:42.827Z,20.92
2017-07-14T22:32:06.869Z,20.75
2017-07-14T22:34:30.862Z,21.1
2017-07-14T22:36:54.901Z,20.8
2017-07-14T22:38:56.282Z,20.95
2017-07-14T22:41:20.368Z,21.26
2017-07-14T22:43:13.430Z,21.17
2017-07-14T22:45:29.081Z,21.15
2017-07-14T22:47:53.082Z,21.15
2017-07-14T22:50:17.126Z,21.47
2017-07-14T22:52:41.180Z,21.38
2017-07-14T22:55:05.193Z,21.35
2017-07-14T22:57:29.235Z,21.59
2017-07-14T22:59:53.293Z,21.38
2017-07-14T23:02:17.358Z,21.43
2017-07-14T23:04:32.978Z,21.47
2017-07-14T23:06:49.618Z,21.5
2017-07-14T23:09:13.644Z,21.53
2017-07-14T23:11:37.692Z,21.56
2017-07-14T23:14:01.764Z,21.66
2017-07-14T23:16:25.803Z,21.62
2017-07-14T23:18:49.925Z,21.72
2017-07-14T23:21:13.998Z,21.96
2017-07-14T23:23:29.624Z,21.66
2017-07-14T23:25:53.684Z,21.7
2017-07-14T23:28:17.753Z,21.84
2017-07-14T23:30:41.826Z,21.63
2017-07-14T23:33:06.017Z,21.51
2017-07-14T23:35:30.199Z,21.33
2017-07-14T23:37:54.313Z,21.29
2017-07-14T23:40:18.339Z,21.33
2017-07-14T23:42:42.383Z,21.5
2017-07-14T23:45:06.425Z,21.19
2017-07-14T23:47:30.485Z,21.14
2017-07-14T23:49:54.549Z,21.26
2017-07-14T23:53:55.851Z,21.37
2017-07-14T23:56:11.478Z,21.19
2017-07-14T23:58:35.503Z,21.05
